sensor_id;sensor_type;location;lat;lon;timestamp;pressure;altitude;pressure_sealevel;temperature;humidity
59951;BME280;45812;53.540;9.774;2022-11-15T00:01:28;101124.09;;;5.24;100.00
59951;BME280;45812;53.540;9.774;2022-11-15T00:03:54;101118.81;;;5.12;100.00
59951;BME280;45812;53.540;9.774;2022-11-15T00:06:19;101116.06;;;5.14;100.00
59951;BME280;45812;53.540;9.774;2022-11-15T00:08:44;101130.81;;;5.28;100.00
59951;BME280;45812;53.540;9.774;2022-11-15T00:11:11;101131.63;;;5.51;100.00
59951;BME280;45812;53.540;9.774;2022-11-15T00:13:37;101138.81;;;5.71;100.00
59951;BME280;45812;53.540;9.774;2022-11-15T00:16:02;101137.44;;;5.88;100.00
59951;BME280;45812;53.540;9.774;2022-11-15T00:18:29;101116.19;;;6.00;100.00
59951;BME280;45812;53.540;9.774;2022-11-15T00:20:55;101122.38;;;6.11;100.00
59951;BME280;45812;53.540;9.774;2022-11-15T00:23:20;101115.53;;;6.19;100.00
59951;BME280;45812;53.540;9.774;2022-11-15T00:25:45;101112.50;;;6.24;100.00
59951;BME280;45812;53.540;9.774;2022-11-15T00:28:11;101118.72;;;6.34;100.00
59951;BME280;45812;53.540;9.774;2022-11-15T00:30:36;101124.44;;;6.39;100.00
59951;BME280;45812;53.540;9.774;2022-11-15T00:33:03;101117.94;;;6.43;100.00
59951;BME280;45812;53.540;9.774;2022-11-15T00:35:31;101114.88;;;6.48;100.00
59951;BME280;45812;53.540;9.774;2022-11-15T00:37:57;101116.34;;;6.52;100.00
59951;BME280;45812;53.540;9.774;2022-11-15T00:40:22;101109.38;;;6.51;100.00
59951;BME280;45812;53.540;9.774;2022-11-15T00:42:47;101108.13;;;6.55;100.00
59951;BME280;45812;53.540;9.774;2022-11-15T00:45:12;101111.63;;;6.55;100.00
59951;BME280;45812;53.540;9.774;2022-11-15T00:47:38;101118.31;;;6.59;100.00
59951;BME280;45812;53.540;9.774;2022-11-15T00:50:04;101119.16;;;6.60;100.00
59951;BME280;45812;53.540;9.774;2022-11-15T00:52:29;101114.69;;;6.60;100.00
59951;BME280;45812;53.540;9.774;2022-11-15T00:54:54;101122.31;;;6.54;100.00
59951;BME280;45812;53.540;9.774;2022-11-15T00:57:19;101106.91;;;6.38;100.00
59951;BME280;45812;53.540;9.774;2022-11-15T00:59:45;101109.31;;;6.09;100.00
59951;BME280;45812;53.540;9.774;2022-11-15T01:02:10;101112.59;;;5.90;100.00
59951;BME280;45812;53.540;9.774;2022-11-15T01:04:35;101108.91;;;5.70;100.00
59951;BME280;45812;53.540;9.774;2022-11-15T01:07:00;101107.63;;;5.54;100.00
59951;BME280;45812;53.540;9.774;2022-11-15T01:09:26;101118.81;;;5.46;100.00
59951;BME280;45812;53.540;9.774;2022-11-15T01:11:51;101115.19;;;5.36;100.00
59951;BME280;45812;53.540;9.774;2022-11-15T01:14:17;101113.44;;;5.25;100.00
59951;BME280;45812;53.540;9.774;2022-11-15T01:16:42;101096.63;;;5.15;100.00
59951;BME280;45812;53.540;9.774;2022-11-15T01:19:07;101095.91;;;5.13;100.00
59951;BME280;45812;53.540;9.774;2022-11-15T01:21:32;101100.72;;;5.08;100.00
59951;BME280;45812;53.540;9.774;2022-11-15T01:23:58;101108.38;;;5.00;100.00
59951;BME280;45812;53.540;9.774;2022-11-15T01:26:24;101111.50;;;4.94;100.00
59951;BME280;45812;53.540;9.774;2022-11-15T01:28:49;101099.63;;;4.88;100.00
59951;BME280;45812;53.540;9.774;2022-11-15T01:31:17;101103.56;;;4.82;100.00
59951;BME280;45812;53.540;9.774;2022-11-15T01:33:43;101101.28;;;4.78;100.00
59951;BME280;45812;53.540;9.774;2022-11-15T01:36:18;101107.28;;;4.80;100.00
59951;BME280;45812;53.540;9.774;2022-11-15T01:38:44;101096.13;;;4.76;100.00
59951;BME280;45812;53.540;9.774;2022-11-15T01:41:18;101107.75;;;4.74;100.00
59951;BME280;45812;53.540;9.774;2022-11-15T01:43:44;101096.50;;;4.72;100.00
59951;BME280;45812;53.540;9.774;2022-11-15T01:46:23;101099.13;;;4.72;100.00
59951;BME280;45812;53.540;9.774;2022-11-15T01:48:51;101094.94;;;4.69;100.00
59951;BME280;45812;53.540;9.774;2022-11-15T01:51:19;101090.09;;;4.63;100.00
59951;BME280;45812;53.540;9.774;2022-11-15T01:53:47;101093.94;;;4.59;100.00
59951;BME280;45812;53.540;9.774;2022-11-15T01:56:17;101086.75;;;4.61;100.00
59951;BME280;45812;53.540;9.774;2022-11-15T01:58:44;101092.16;;;4.60;100.00
59951;BME280;45812;53.540;9.774;2022-11-15T02:01:12;101080.75;;;4.59;100.00
59951;BME280;45812;53.540;9.774;2022-11-15T02:03:45;101093.09;;;4.59;100.00
59951;BME280;45812;53.540;9.774;2022-11-15T02:06:13;101087.09;;;4.56;100.00
59951;BME280;45812;53.540;9.774;2022-11-15T02:08:39;101073.69;;;4.48;100.00
59951;BME280;45812;53.540;9.774;2022-11-15T02:11:08;101063.34;;;4.45;100.00
59951;BME280;45812;53.540;9.774;2022-11-15T02:13:33;101061.19;;;4.39;100.00
59951;BME280;45812;53.540;9.774;2022-11-15T02:18:34;101062.94;;;5.07;100.00
59951;BME280;45812;53.540;9.774;2022-11-15T02:21:08;101076.25;;;5.06;100.00
59951;BME280;45812;53.540;9.774;2022-11-15T02:24:52;101067.13;;;5.10;100.00
59951;BME280;45812;53.540;9.774;2022-11-15T02:26:51;101056.34;;;5.13;100.00
59951;BME280;45812;53.540;9.774;2022-11-15T02:37:47;101057.28;;;5.12;100.00
59951;BME280;45812;53.540;9.774;2022-11-15T02:40:57;101057.03;;;5.15;100.00
59951;BME280;45812;53.540;9.774;2022-11-15T02:43:32;101054.28;;;5.16;100.00
59951;BME280;45812;53.540;9.774;2022-11-15T02:46:38;101043.84;;;5.15;100.00
59951;BME280;45812;53.540;9.774;2022-11-15T02:49:27;101036.31;;;5.22;100.00
59951;BME280;45812;53.540;9.774;2022-11-15T02:51:54;101030.19;;;5.21;100.00
59951;BME280;45812;53.540;9.774;2022-11-15T02:54:24;101031.88;;;5.22;100.00
59951;BME280;45812;53.540;9.774;2022-11-15T02:56:52;101038.09;;;5.21;100.00
59951;BME280;45812;53.540;9.774;2022-11-15T02:59:40;101033.16;;;5.16;100.00
59951;BME280;45812;53.540;9.774;2022-11-15T03:02:42;101028.13;;;5.13;100.00
59951;BME280;45812;53.540;9.774;2022-11-15T03:05:25;101037.41;;;5.08;100.00
59951;BME280;45812;53.540;9.774;2022-11-15T03:08:01;101040.28;;;5.05;100.00
59951;BME280;45812;53.540;9.774;2022-11-15T03:10:52;101040.28;;;5.05;100.00
59951;BME280;45812;53.540;9.774;2022-11-15T03:13:27;101039.44;;;5.04;100.00
59951;BME280;45812;53.540;9.774;2022-11-15T03:16:03;101047.81;;;5.09;100.00
59951;BME280;45812;53.540;9.774;2022-11-15T03:18:33;101049.38;;;5.12;100.00
59951;BME280;45812;53.540;9.774;2022-11-15T03:21:04;101055.38;;;5.14;100.00
59951;BME280;45812;53.540;9.774;2022-11-15T03:23:31;101063.28;;;5.14;100.00
59951;BME280;45812;53.540;9.774;2022-11-15T03:25:59;101055.97;;;5.17;100.00
59951;BME280;45812;53.540;9.774;2022-11-15T03:28:32;101044.56;;;5.17;100.00
59951;BME280;45812;53.540;9.774;2022-11-15T03:31:01;101039.78;;;5.22;100.00
59951;BME280;45812;53.540;9.774;2022-11-15T03:33:50;101035.09;;;5.26;100.00
59951;BME280;45812;53.540;9.774;2022-11-15T03:36:17;101032.31;;;5.27;100.00
59951;BME280;45812;53.540;9.774;2022-11-15T03:38:44;101028.47;;;5.31;100.00
59951;BME280;45812;53.540;9.774;2022-11-15T03:41:25;101023.19;;;5.31;100.00
59951;BME280;45812;53.540;9.774;2022-11-15T03:43:57;101022.94;;;5.34;100.00
59951;BME280;45812;53.540;9.774;2022-11-15T03:46:32;101030.16;;;5.32;100.00
59951;BME280;45812;53.540;9.774;2022-11-15T03:49:15;101031.81;;;5.33;100.00
59951;BME280;45812;53.540;9.774;2022-11-15T03:51:42;101043.34;;;5.32;100.00
59951;BME280;45812;53.540;9.774;2022-11-15T03:54:07;101044.31;;;5.31;100.00
59951;BME280;45812;53.540;9.774;2022-11-15T03:56:32;101044.88;;;5.46;100.00
59951;BME280;45812;53.540;9.774;2022-11-15T03:58:58;101038.69;;;5.68;100.00
59951;BME280;45812;53.540;9.774;2022-11-15T04:01:23;101037.91;;;5.88;100.00
59951;BME280;45812;53.540;9.774;2022-11-15T04:03:48;101038.72;;;5.57;100.00
59951;BME280;45812;53.540;9.774;2022-11-15T04:06:13;101033.22;;;5.60;100.00
59951;BME280;45812;53.540;9.774;2022-11-15T04:08:39;101028.84;;;5.70;100.00
59951;BME280;45812;53.540;9.774;2022-11-15T04:11:04;101029.53;;;5.83;100.00
59951;BME280;45812;53.540;9.774;2022-11-15T04:13:29;101026.47;;;5.99;100.00
59951;BME280;45812;53.540;9.774;2022-11-15T04:15:54;101027.25;;;6.11;100.00
59951;BME280;45812;53.540;9.774;2022-11-15T04:18:20;101024.56;;;6.22;100.00
59951;BME280;45812;53.540;9.774;2022-11-15T04:20:45;101028.94;;;6.32;100.00
59951;BME280;45812;53.540;9.774;2022-11-15T04:23:29;101022.28;;;6.38;100.00
59951;BME280;45812;53.540;9.774;2022-11-15T04:26:18;101022.34;;;6.48;100.00
59951;BME280;45812;53.540;9.774;2022-11-15T04:28:44;101020.47;;;6.59;100.00
59951;BME280;45812;53.540;9.774;2022-11-15T04:31:28;101020.06;;;6.64;100.00
59951;BME280;45812;53.540;9.774;2022-11-15T04:33:55;101032.50;;;6.73;100.00
59951;BME280;45812;53.540;9.774;2022-11-15T04:36:20;101029.19;;;6.81;100.00
59951;BME280;45812;53.540;9.774;2022-11-15T04:39:04;101027.44;;;6.91;100.00
59951;BME280;45812;53.540;9.774;2022-11-15T04:41:30;101027.84;;;6.96;100.00
59951;BME280;45812;53.540;9.774;2022-11-15T04:43:55;101028.72;;;7.06;100.00
59951;BME280;45812;53.540;9.774;2022-11-15T04:46:21;101019.28;;;7.13;100.00
59951;BME280;45812;53.540;9.774;2022-11-15T04:48:46;101025.13;;;7.17;100.00
59951;BME280;45812;53.540;9.774;2022-11-15T04:51:12;101022.22;;;7.20;100.00
59951;BME280;45812;53.540;9.774;2022-11-15T04:53:37;101023.50;;;7.25;100.00
59951;BME280;45812;53.540;9.774;2022-11-15T04:56:02;101017.94;;;7.28;100.00
59951;BME280;45812;53.540;9.774;2022-11-15T04:58:27;101011.53;;;7.31;100.00
59951;BME280;45812;53.540;9.774;2022-11-15T05:00:53;101015.44;;;7.37;100.00
59951;BME280;45812;53.540;9.774;2022-11-15T05:03:18;101016.97;;;7.39;100.00
59951;BME280;45812;53.540;9.774;2022-11-15T05:06:02;101005.25;;;7.42;100.00
59951;BME280;45812;53.540;9.774;2022-11-15T05:08:27;101007.38;;;7.48;100.00
59951;BME280;45812;53.540;9.774;2022-11-15T05:10:53;100994.97;;;7.48;100.00
59951;BME280;45812;53.540;9.774;2022-11-15T05:13:18;100989.25;;;7.53;100.00
59951;BME280;45812;53.540;9.774;2022-11-15T05:15:43;100990.22;;;7.52;100.00
59951;BME280;45812;53.540;9.774;2022-11-15T05:18:09;101000.97;;;7.50;100.00
59951;BME280;45812;53.540;9.774;2022-11-15T05:20:34;101002.50;;;7.53;100.00
59951;BME280;45812;53.540;9.774;2022-11-15T05:22:59;101001.38;;;7.55;100.00
59951;BME280;45812;53.540;9.774;2022-11-15T05:25:25;101003.59;;;7.60;100.00
59951;BME280;45812;53.540;9.774;2022-11-15T05:27:50;101003.34;;;7.63;100.00
59951;BME280;45812;53.540;9.774;2022-11-15T05:30:16;101006.00;;;7.63;100.00
59951;BME280;45812;53.540;9.774;2022-11-15T05:32:42;101020.91;;;7.64;100.00
59951;BME280;45812;53.540;9.774;2022-11-15T05:35:10;101005.03;;;7.64;100.00
59951;BME280;45812;53.540;9.774;2022-11-15T05:37:37;101007.53;;;7.66;100.00
59951;BME280;45812;53.540;9.774;2022-11-15T05:40:02;100993.00;;;7.60;100.00
59951;BME280;45812;53.540;9.774;2022-11-15T05:42:29;100998.88;;;7.64;100.00
59951;BME280;45812;53.540;9.774;2022-11-15T05:44:57;101000.56;;;7.65;100.00
59951;BME280;45812;53.540;9.774;2022-11-15T05:47:26;101005.84;;;7.65;100.00
59951;BME280;45812;53.540;9.774;2022-11-15T05:49:54;101009.19;;;7.67;100.00
59951;BME280;45812;53.540;9.774;2022-11-15T05:52:22;101012.00;;;7.65;100.00
59951;BME280;45812;53.540;9.774;2022-11-15T05:54:50;101009.34;;;7.65;100.00
59951;BME280;45812;53.540;9.774;2022-11-15T05:57:16;101010.31;;;7.64;100.00
59951;BME280;45812;53.540;9.774;2022-11-15T05:59:42;101016.00;;;7.59;100.00
59951;BME280;45812;53.540;9.774;2022-11-15T06:02:08;101009.59;;;7.62;100.00
59951;BME280;45812;53.540;9.774;2022-11-15T06:04:34;101021.06;;;7.63;100.00
59951;BME280;45812;53.540;9.774;2022-11-15T06:06:59;101020.06;;;7.64;100.00
59951;BME280;45812;53.540;9.774;2022-11-15T06:09:24;101016.44;;;7.65;100.00
59951;BME280;45812;53.540;9.774;2022-11-15T06:11:49;101019.66;;;7.68;100.00
59951;BME280;45812;53.540;9.774;2022-11-15T06:14:14;101006.13;;;7.71;100.00
59951;BME280;45812;53.540;9.774;2022-11-15T06:16:40;101023.84;;;7.71;100.00
59951;BME280;45812;53.540;9.774;2022-11-15T06:19:06;101023.28;;;7.77;100.00
59951;BME280;45812;53.540;9.774;2022-11-15T06:21:32;101017.00;;;7.78;100.00
59951;BME280;45812;53.540;9.774;2022-11-15T06:23:57;101020.34;;;7.80;100.00
59951;BME280;45812;53.540;9.774;2022-11-15T06:26:22;101018.41;;;7.82;100.00
59951;BME280;45812;53.540;9.774;2022-11-15T06:28:47;101023.72;;;7.82;100.00
59951;BME280;45812;53.540;9.774;2022-11-15T06:31:12;101026.22;;;7.83;100.00
59951;BME280;45812;53.540;9.774;2022-11-15T06:33:38;101028.59;;;7.86;100.00
59951;BME280;45812;53.540;9.774;2022-11-15T06:36:06;101024.69;;;7.90;100.00
59951;BME280;45812;53.540;9.774;2022-11-15T06:38:31;101030.97;;;7.89;100.00
59951;BME280;45812;53.540;9.774;2022-11-15T06:41:07;101024.53;;;7.92;100.00
59951;BME280;45812;53.540;9.774;2022-11-15T06:43:34;101029.28;;;7.88;100.00
59951;BME280;45812;53.540;9.774;2022-11-15T06:46:00;101030.97;;;7.89;100.00
59951;BME280;45812;53.540;9.774;2022-11-15T06:48:26;101032.47;;;7.92;100.00
59951;BME280;45812;53.540;9.774;2022-11-15T06:50:57;101028.31;;;7.89;100.00
59951;BME280;45812;53.540;9.774;2022-11-15T06:53:23;101030.53;;;7.94;100.00
59951;BME280;45812;53.540;9.774;2022-11-15T06:55:49;101037.50;;;7.95;100.00
59951;BME280;45812;53.540;9.774;2022-11-15T06:58:14;101042.53;;;7.98;100.00
59951;BME280;45812;53.540;9.774;2022-11-15T07:00:40;101040.59;;;8.00;100.00
59951;BME280;45812;53.540;9.774;2022-11-15T07:03:06;101034.72;;;8.06;100.00
59951;BME280;45812;53.540;9.774;2022-11-15T07:05:31;101038.75;;;8.10;100.00
59951;BME280;45812;53.540;9.774;2022-11-15T07:07:57;101049.22;;;8.12;100.00
59951;BME280;45812;53.540;9.774;2022-11-15T07:10:24;101049.34;;;8.10;100.00
59951;BME280;45812;53.540;9.774;2022-11-15T07:12:53;101049.91;;;8.14;100.00
59951;BME280;45812;53.540;9.774;2022-11-15T07:15:22;101051.59;;;8.15;100.00
59951;BME280;45812;53.540;9.774;2022-11-15T07:17:48;101061.91;;;8.18;100.00
59951;BME280;45812;53.540;9.774;2022-11-15T07:20:14;101063.59;;;8.19;100.00
59951;BME280;45812;53.540;9.774;2022-11-15T07:22:40;101058.00;;;8.22;100.00
59951;BME280;45812;53.540;9.774;2022-11-15T07:25:06;101055.38;;;8.22;100.00
59951;BME280;45812;53.540;9.774;2022-11-15T07:27:32;101053.13;;;8.27;100.00
59951;BME280;45812;53.540;9.774;2022-11-15T07:29:57;101056.88;;;8.25;100.00
59951;BME280;45812;53.540;9.774;2022-11-15T07:32:23;101048.66;;;8.28;100.00
59951;BME280;45812;53.540;9.774;2022-11-15T07:34:48;101047.22;;;8.33;100.00
59951;BME280;45812;53.540;9.774;2022-11-15T07:37:13;101047.69;;;8.38;100.00
59951;BME280;45812;53.540;9.774;2022-11-15T07:39:38;101043.78;;;8.42;100.00
59951;BME280;45812;53.540;9.774;2022-11-15T07:42:04;101049.38;;;8.39;100.00
59951;BME280;45812;53.540;9.774;2022-11-15T07:44:48;101049.50;;;8.38;100.00
59951;BME280;45812;53.540;9.774;2022-11-15T07:47:13;101044.31;;;8.36;100.00
59951;BME280;45812;53.540;9.774;2022-11-15T07:49:38;101036.50;;;8.44;100.00
59951;BME280;45812;53.540;9.774;2022-11-15T07:52:03;101041.22;;;8.50;100.00
59951;BME280;45812;53.540;9.774;2022-11-15T07:54:29;101040.09;;;8.53;100.00
59951;BME280;45812;53.540;9.774;2022-11-15T07:56:54;101038.56;;;8.60;100.00
59951;BME280;45812;53.540;9.774;2022-11-15T07:59:19;101043.44;;;8.65;100.00
59951;BME280;45812;53.540;9.774;2022-11-15T08:01:45;101053.91;;;8.66;100.00
59951;BME280;45812;53.540;9.774;2022-11-15T08:04:10;101053.50;;;8.61;100.00
59951;BME280;45812;53.540;9.774;2022-11-15T08:06:36;101052.22;;;8.65;100.00
59951;BME280;45812;53.540;9.774;2022-11-15T08:09:02;101057.09;;;8.70;100.00
59951;BME280;45812;53.540;9.774;2022-11-15T08:11:27;101058.34;;;8.75;100.00
59951;BME280;45812;53.540;9.774;2022-11-15T08:13:52;101054.88;;;8.75;100.00
59951;BME280;45812;53.540;9.774;2022-11-15T08:16:18;101058.47;;;8.84;100.00
59951;BME280;45812;53.540;9.774;2022-11-15T08:18:43;101059.38;;;8.92;100.00
59951;BME280;45812;53.540;9.774;2022-11-15T08:21:09;101045.56;;;8.98;100.00
59951;BME280;45812;53.540;9.774;2022-11-15T08:23:34;101046.25;;;9.00;100.00
59951;BME280;45812;53.540;9.774;2022-11-15T08:26:01;101047.47;;;9.06;100.00
59951;BME280;45812;53.540;9.774;2022-11-15T08:28:27;101044.66;;;9.07;100.00
59951;BME280;45812;53.540;9.774;2022-11-15T08:30:53;101040.16;;;9.18;100.00
59951;BME280;45812;53.540;9.774;2022-11-15T08:33:18;101046.94;;;9.30;100.00
59951;BME280;45812;53.540;9.774;2022-11-15T08:35:44;101054.31;;;9.36;100.00
59951;BME280;45812;53.540;9.774;2022-11-15T08:38:09;101048.94;;;9.46;100.00
59951;BME280;45812;53.540;9.774;2022-11-15T08:40:36;101037.63;;;9.61;100.00
59951;BME280;45812;53.540;9.774;2022-11-15T08:43:01;101044.03;;;9.68;100.00
59951;BME280;45812;53.540;9.774;2022-11-15T08:45:28;101052.16;;;9.85;100.00
59951;BME280;45812;53.540;9.774;2022-11-15T08:47:54;101041.75;;;9.91;100.00
59951;BME280;45812;53.540;9.774;2022-11-15T08:50:19;101045.00;;;9.85;100.00
59951;BME280;45812;53.540;9.774;2022-11-15T08:52:44;101052.84;;;9.87;100.00
59951;BME280;45812;53.540;9.774;2022-11-15T08:55:10;101046.00;;;9.84;100.00
59951;BME280;45812;53.540;9.774;2022-11-15T08:57:35;101052.75;;;9.79;100.00
59951;BME280;45812;53.540;9.774;2022-11-15T09:00:00;101045.31;;;9.82;100.00
59951;BME280;45812;53.540;9.774;2022-11-15T09:02:25;101035.59;;;9.91;99.91
59951;BME280;45812;53.540;9.774;2022-11-15T09:04:51;101046.41;;;9.89;99.66
59951;BME280;45812;53.540;9.774;2022-11-15T09:07:16;101044.94;;;9.95;99.72
59951;BME280;45812;53.540;9.774;2022-11-15T09:09:42;101043.47;;;10.18;98.65
59951;BME280;45812;53.540;9.774;2022-11-15T09:12:07;101055.47;;;10.40;97.75
59951;BME280;45812;53.540;9.774;2022-11-15T09:14:33;101050.06;;;10.50;96.97
59951;BME280;45812;53.540;9.774;2022-11-15T09:16:58;101047.84;;;10.63;96.81
59951;BME280;45812;53.540;9.774;2022-11-15T09:19:24;101047.09;;;10.79;95.58
59951;BME280;45812;53.540;9.774;2022-11-15T09:21:49;101045.03;;;10.99;94.35
59951;BME280;45812;53.540;9.774;2022-11-15T09:24:15;101053.28;;;11.21;93.07
59951;BME280;45812;53.540;9.774;2022-11-15T09:26:40;101049.81;;;11.29;91.80
59951;BME280;45812;53.540;9.774;2022-11-15T09:29:06;101050.19;;;11.34;92.16
59951;BME280;45812;53.540;9.774;2022-11-15T09:31:31;101046.06;;;11.56;90.94
59951;BME280;45812;53.540;9.774;2022-11-15T09:33:56;101045.31;;;11.80;89.99
59951;BME280;45812;53.540;9.774;2022-11-15T09:36:22;101043.31;;;11.82;89.61
59951;BME280;45812;53.540;9.774;2022-11-15T09:38:47;101043.47;;;11.89;89.16
59951;BME280;45812;53.540;9.774;2022-11-15T09:43:42;101034.78;;;11.87;89.28
59951;BME280;45812;53.540;9.774;2022-11-15T09:46:20;101042.31;;;11.83;88.83
59951;BME280;45812;53.540;9.774;2022-11-15T09:49:00;101047.97;;;11.80;89.28
59951;BME280;45812;53.540;9.774;2022-11-15T09:51:32;101054.94;;;11.73;89.76
59951;BME280;45812;53.540;9.774;2022-11-15T09:56:36;101059.56;;;11.63;90.19
59951;BME280;45812;53.540;9.774;2022-11-15T09:59:30;101052.22;;;11.57;90.81
59951;BME280;45812;53.540;9.774;2022-11-15T10:04:33;101047.22;;;11.53;91.48
59951;BME280;45812;53.540;9.774;2022-11-15T10:12:15;101050.56;;;11.56;91.87
59951;BME280;45812;53.540;9.774;2022-11-15T10:14:41;101043.88;;;11.51;92.47
59951;BME280;45812;53.540;9.774;2022-11-15T10:17:18;101038.19;;;11.46;92.91
59951;BME280;45812;53.540;9.774;2022-11-15T10:22:40;101030.19;;;11.38;93.47
59951;BME280;45812;53.540;9.774;2022-11-15T10:27:34;101026.84;;;11.36;93.37
59951;BME280;45812;53.540;9.774;2022-11-15T10:30:00;101028.38;;;11.39;93.67
59951;BME280;45812;53.540;9.774;2022-11-15T10:32:26;101033.19;;;11.43;93.82
59951;BME280;45812;53.540;9.774;2022-11-15T10:34:51;101026.56;;;11.56;92.84
59951;BME280;45812;53.540;9.774;2022-11-15T10:37:31;101022.06;;;11.56;92.67
59951;BME280;45812;53.540;9.774;2022-11-15T10:40:14;101018.75;;;11.62;92.96
59951;BME280;45812;53.540;9.774;2022-11-15T10:42:40;101016.75;;;11.56;93.46
59951;BME280;45812;53.540;9.774;2022-11-15T10:45:29;101023.91;;;11.64;92.67
59951;BME280;45812;53.540;9.774;2022-11-15T10:50:48;101008.47;;;11.92;91.19
59951;BME280;45812;53.540;9.774;2022-11-15T10:55:56;101018.81;;;12.03;90.45
59951;BME280;45812;53.540;9.774;2022-11-15T10:58:55;101015.47;;;12.01;90.74
59951;BME280;45812;53.540;9.774;2022-11-15T11:01:26;101000.63;;;11.98;90.51
59951;BME280;45812;53.540;9.774;2022-11-15T11:06:24;100984.78;;;11.89;91.61
59951;BME280;45812;53.540;9.774;2022-11-15T11:09:02;100986.13;;;11.93;91.05
59951;BME280;45812;53.540;9.774;2022-11-15T11:11:47;100991.13;;;11.96;91.11
59951;BME280;45812;53.540;9.774;2022-11-15T11:14:23;100989.63;;;12.09;90.41
59951;BME280;45812;53.540;9.774;2022-11-15T11:17:02;100989.28;;;12.21;90.10
59951;BME280;45812;53.540;9.774;2022-11-15T11:19:49;100979.56;;;12.44;89.43
59951;BME280;45812;53.540;9.774;2022-11-15T11:24:55;100971.75;;;12.90;87.56
59951;BME280;45812;53.540;9.774;2022-11-15T11:30:11;100962.88;;;13.28;85.56
59951;BME280;45812;53.540;9.774;2022-11-15T11:35:43;100950.00;;;13.55;84.07
59951;BME280;45812;53.540;9.774;2022-11-15T11:38:41;100949.81;;;13.56;83.76
59951;BME280;45812;53.540;9.774;2022-11-15T11:46:52;100945.13;;;13.81;84.03
59951;BME280;45812;53.540;9.774;2022-11-15T11:49:41;100941.50;;;15.00;79.30
59951;BME280;45812;53.540;9.774;2022-11-15T11:52:17;100950.19;;;16.30;73.10
59951;BME280;45812;53.540;9.774;2022-11-15T11:55:04;100937.75;;;17.93;64.39
59951;BME280;45812;53.540;9.774;2022-11-15T11:57:47;100941.84;;;18.22;61.96
59951;BME280;45812;53.540;9.774;2022-11-15T12:00:22;100944.16;;;17.98;61.92
59951;BME280;45812;53.540;9.774;2022-11-15T12:05:47;100934.38;;;18.37;59.10
59951;BME280;45812;53.540;9.774;2022-11-15T12:08:24;100932.47;;;19.15;55.72
59951;BME280;45812;53.540;9.774;2022-11-15T12:11:34;100936.38;;;20.32;52.48
59951;BME280;45812;53.540;9.774;2022-11-15T12:13:53;100928.28;;;21.05;49.63
59951;BME280;45812;53.540;9.774;2022-11-15T12:16:28;100930.69;;;21.55;47.72
59951;BME280;45812;53.540;9.774;2022-11-15T12:18:54;100926.84;;;21.63;46.69
59951;BME280;45812;53.540;9.774;2022-11-15T12:21:34;100920.56;;;21.21;47.77
59951;BME280;45812;53.540;9.774;2022-11-15T12:24:06;100917.63;;;21.22;47.50
59951;BME280;45812;53.540;9.774;2022-11-15T12:26:38;100918.06;;;21.19;47.06
59951;BME280;45812;53.540;9.774;2022-11-15T12:29:10;100921.59;;;21.20;46.72
59951;BME280;45812;53.540;9.774;2022-11-15T12:31:42;100909.09;;;21.37;46.63
59951;BME280;45812;53.540;9.774;2022-11-15T12:34:35;100910.91;;;21.55;46.50
59951;BME280;45812;53.540;9.774;2022-11-15T12:37:01;100899.06;;;21.91;45.69
59951;BME280;45812;53.540;9.774;2022-11-15T12:40:14;100898.28;;;22.14;44.66
59951;BME280;45812;53.540;9.774;2022-11-15T12:45:42;100898.88;;;21.39;45.72
59951;BME280;45812;53.540;9.774;2022-11-15T12:58:55;100874.38;;;21.04;47.20
59951;BME280;45812;53.540;9.774;2022-11-15T13:11:53;100846.97;;;21.42;46.21
59951;BME280;45812;53.540;9.774;2022-11-15T13:19:48;100860.78;;;20.92;47.66
59951;BME280;45812;53.540;9.774;2022-11-15T13:22:17;100854.81;;;20.72;48.03
59951;BME280;45812;53.540;9.774;2022-11-15T13:25:01;100849.34;;;20.42;48.54
59951;BME280;45812;53.540;9.774;2022-11-15T13:27:26;100852.72;;;20.55;48.99
59951;BME280;45812;53.540;9.774;2022-11-15T13:29:52;100843.59;;;20.86;47.67
59951;BME280;45812;53.540;9.774;2022-11-15T13:32:18;100844.78;;;20.91;48.00
59951;BME280;45812;53.540;9.774;2022-11-15T13:34:45;100852.41;;;20.64;48.41
59951;BME280;45812;53.540;9.774;2022-11-15T13:39:47;100844.00;;;20.72;48.69
59951;BME280;45812;53.540;9.774;2022-11-15T13:42:16;100838.03;;;21.11;47.72
59951;BME280;45812;53.540;9.774;2022-11-15T13:44:54;100829.41;;;21.56;46.63
59951;BME280;45812;53.540;9.774;2022-11-15T13:47:20;100822.75;;;22.46;44.28
59951;BME280;45812;53.540;9.774;2022-11-15T13:49:46;100822.19;;;23.46;42.22
59951;BME280;45812;53.540;9.774;2022-11-15T13:52:13;100823.09;;;24.45;40.14
59951;BME280;45812;53.540;9.774;2022-11-15T13:54:46;100828.88;;;24.76;39.20
59951;BME280;45812;53.540;9.774;2022-11-15T13:57:23;100829.13;;;24.74;39.44
59951;BME280;45812;53.540;9.774;2022-11-15T13:59:55;100823.38;;;24.98;38.59
59951;BME280;45812;53.540;9.774;2022-11-15T14:02:31;100823.91;;;25.22;38.06
59951;BME280;45812;53.540;9.774;2022-11-15T14:05:18;100826.66;;;25.59;37.58
59951;BME280;45812;53.540;9.774;2022-11-15T14:07:54;100817.81;;;26.31;36.19
59951;BME280;45812;53.540;9.774;2022-11-15T14:10:31;100810.94;;;25.34;36.84
59951;BME280;45812;53.540;9.774;2022-11-15T14:12:58;100814.19;;;23.73;39.97
59951;BME280;45812;53.540;9.774;2022-11-15T14:17:57;100812.97;;;21.58;44.27
59951;BME280;45812;53.540;9.774;2022-11-15T14:20:28;100812.75;;;20.58;46.71
59951;BME280;45812;53.540;9.774;2022-11-15T14:22:58;100815.75;;;19.76;48.75
59951;BME280;45812;53.540;9.774;2022-11-15T14:25:25;100813.31;;;18.87;51.26
59951;BME280;45812;53.540;9.774;2022-11-15T14:30:45;100822.16;;;17.78;57.59
59951;BME280;45812;53.540;9.774;2022-11-15T14:33:30;100818.03;;;17.36;60.48
59951;BME280;45812;53.540;9.774;2022-11-15T14:35:57;100814.25;;;17.04;62.05